createdAt,value
2018-12-10T00:02:12.826Z,100.00
2018-12-10T00:07:07.494Z,100.00
2018-12-10T00:12:02.173Z,100.00
2018-12-10T00:16:56.814Z,100.00
2018-12-10T00:21:51.697Z,100.00
2018-12-10T00:26:46.327Z,100.00
2018-12-10T00:31:41.003Z,100.00
2018-12-10T00:36:35.759Z,100.00
2018-12-10T00:41:30.511Z,100.00
2018-12-10T00:46:25.270Z,100.00
2018-12-10T00:51:20.126Z,100.00
2018-12-10T00:56:14.739Z,100.00
2018-12-10T01:01:09.396Z,100.00
2018-12-10T01:06:04.228Z,100.00
2018-12-10T01:10:59.079Z,99.89
2018-12-10T01:15:53.779Z,99.92
2018-12-10T01:20:48.412Z,100.00
2018-12-10T01:25:43.030Z,100.00
2018-12-10T01:30:37.659Z,100.00
2018-12-10T01:35:32.797Z,100.00
2018-12-10T01:40:27.483Z,100.00
2018-12-10T01:45:22.303Z,100.00
2018-12-10T01:50:17.017Z,95.94
2018-12-10T01:55:11.636Z,96.20
2018-12-10T02:00:07.377Z,97.72
2018-12-10T02:05:01.987Z,98.24
2018-12-10T02:09:56.812Z,96.93
2018-12-10T02:14:51.550Z,96.25
2018-12-10T02:19:46.290Z,96.43
2018-12-10T02:24:41.149Z,97.42
2018-12-10T02:29:35.781Z,96.94
2018-12-10T02:34:30.642Z,96.51
2018-12-10T02:39:25.224Z,97.02
2018-12-10T02:44:19.857Z,98.77
2018-12-10T02:49:14.523Z,98.27
2018-12-10T02:54:09.118Z,98.18
2018-12-10T02:59:03.871Z,98.33
2018-12-10T03:03:58.493Z,95.90
2018-12-10T03:08:53.279Z,93.74
2018-12-10T03:13:47.934Z,94.28
2018-12-10T03:18:42.679Z,95.15
2018-12-10T03:23:37.429Z,95.97
2018-12-10T03:28:32.258Z,97.40
2018-12-10T03:33:26.957Z,97.07
2018-12-10T03:38:21.682Z,98.33
2018-12-10T03:43:16.307Z,98.61
2018-12-10T03:48:10.913Z,98.77
2018-12-10T03:53:05.531Z,98.00
2018-12-10T03:58:00.209Z,97.69
2018-12-10T04:02:54.809Z,96.83
2018-12-10T04:07:49.501Z,97.57
2018-12-10T04:12:44.083Z,97.77
2018-12-10T04:17:38.724Z,96.69
2018-12-10T04:22:33.306Z,98.19
2018-12-10T04:27:27.875Z,97.88
2018-12-10T04:32:23.107Z,96.54
2018-12-10T04:37:17.735Z,96.17
2018-12-10T04:42:12.401Z,96.80
2018-12-10T04:47:07.136Z,94.57
2018-12-10T04:52:01.751Z,95.20
2018-12-10T04:56:57.281Z,94.97
2018-12-10T05:01:51.970Z,93.77
2018-12-10T05:06:46.723Z,93.13
2018-12-10T05:11:41.463Z,93.51
2018-12-10T05:16:36.168Z,92.81
2018-12-10T05:21:30.852Z,93.03
2018-12-10T05:26:25.462Z,91.80
2018-12-10T05:31:20.091Z,92.05
2018-12-10T05:36:14.820Z,92.01
2018-12-10T05:41:09.479Z,92.71
2018-12-10T05:46:04.227Z,93.60
2018-12-10T05:50:58.862Z,94.36
2018-12-10T05:55:53.646Z,95.62
2018-12-10T06:00:48.284Z,95.20
2018-12-10T06:05:49.578Z,95.72
2018-12-10T06:10:44.360Z,95.99
2018-12-10T06:15:39.010Z,95.76
2018-12-10T06:20:33.720Z,95.53
2018-12-10T06:25:28.451Z,96.04
2018-12-10T06:30:23.226Z,94.57
2018-12-10T06:40:38.738Z,94.80
2018-12-10T06:45:33.395Z,95.24
2018-12-10T06:50:28.064Z,94.53
2018-12-10T06:55:22.704Z,94.90
2018-12-10T07:00:17.319Z,96.22
2018-12-10T07:05:11.981Z,96.33
2018-12-10T07:10:08.481Z,97.01
2018-12-10T07:15:03.135Z,96.12
2018-12-10T07:19:57.738Z,97.01
2018-12-10T07:24:52.382Z,95.65
2018-12-10T07:29:47.046Z,96.35
2018-12-10T07:34:41.728Z,93.57
2018-12-10T07:39:36.322Z,91.54
2018-12-10T07:44:30.965Z,93.67
2018-12-10T07:49:25.580Z,93.32
2018-12-10T07:54:20.212Z,92.80
2018-12-10T07:59:14.859Z,93.22
2018-12-10T08:04:09.530Z,96.19
2018-12-10T08:09:05.630Z,97.26
2018-12-10T08:14:00.259Z,97.60
2018-12-10T08:18:54.996Z,97.90
2018-12-10T08:23:49.692Z,99.52
2018-12-10T08:28:44.435Z,98.21
2018-12-10T08:33:39.103Z,98.43
2018-12-10T08:38:33.720Z,99.22
2018-12-10T08:43:28.416Z,99.26
2018-12-10T08:48:23.102Z,99.52
2018-12-10T08:53:17.717Z,100.00
2018-12-10T08:58:12.375Z,99.83
2018-12-10T09:03:07.099Z,98.54
2018-12-10T09:08:01.787Z,97.58
2018-12-10T09:12:56.625Z,98.03
2018-12-10T09:17:54.765Z,98.59
2018-12-10T09:22:54.475Z,98.67
2018-12-10T09:27:49.118Z,98.26
2018-12-10T09:32:43.984Z,99.13
2018-12-10T09:37:38.575Z,98.66
2018-12-10T09:42:33.435Z,97.47
2018-12-10T09:47:28.101Z,95.83
2018-12-10T09:52:22.779Z,98.29
2018-12-10T09:57:17.438Z,95.64
2018-12-10T10:02:12.496Z,95.19
2018-12-10T10:07:07.382Z,92.70
2018-12-10T10:12:02.039Z,93.37
2018-12-10T10:16:56.767Z,92.91
2018-12-10T10:21:51.407Z,93.43
2018-12-10T10:26:46.067Z,93.02
2018-12-10T10:31:40.682Z,91.28
2018-12-10T10:36:35.369Z,88.40
2018-12-10T10:41:31.390Z,85.98
2018-12-10T10:46:26.496Z,86.50
2018-12-10T10:51:21.152Z,87.30
2018-12-10T10:56:15.745Z,84.27
2018-12-10T11:01:15.667Z,84.08
2018-12-10T11:06:10.530Z,84.06
2018-12-10T11:11:05.360Z,80.56
2018-12-10T11:16:00.146Z,81.61
2018-12-10T11:20:54.753Z,82.48
2018-12-10T11:25:49.357Z,81.83
2018-12-10T11:30:44.010Z,83.06
2018-12-10T11:35:38.648Z,81.78
2018-12-10T11:40:33.312Z,81.75
2018-12-10T11:45:28.253Z,84.93
2018-12-10T11:50:23.002Z,86.28
2018-12-10T11:55:17.820Z,86.94
2018-12-10T12:00:12.699Z,86.28
2018-12-10T12:05:07.856Z,86.59
2018-12-10T12:10:02.608Z,86.86
2018-12-10T12:14:57.485Z,92.12
2018-12-10T12:19:52.126Z,92.04
2018-12-10T12:24:46.767Z,92.11
2018-12-10T12:29:41.357Z,88.08
2018-12-10T12:34:35.978Z,87.61
2018-12-10T12:39:30.712Z,84.53
2018-12-10T12:44:28.410Z,82.84
2018-12-10T12:49:23.048Z,85.41
2018-12-10T12:54:18.040Z,88.17
2018-12-10T12:59:12.720Z,92.27
2018-12-10T13:04:07.502Z,97.33
2018-12-10T13:09:02.151Z,96.70
2018-12-10T13:13:56.776Z,97.56
2018-12-10T13:18:51.432Z,100.00
2018-12-10T13:23:46.032Z,100.00
2018-12-10T13:28:40.638Z,100.00
2018-12-10T13:33:35.287Z,100.00
2018-12-10T13:38:29.893Z,100.00
2018-12-10T13:43:24.507Z,100.00
2018-12-10T13:48:19.099Z,100.00
2018-12-10T13:53:13.699Z,100.00
2018-12-10T13:58:14.793Z,100.00
2018-12-10T14:03:09.565Z,100.00
2018-12-10T14:08:04.192Z,100.00
2018-12-10T14:12:58.926Z,100.00
2018-12-10T14:17:53.558Z,100.00
2018-12-10T14:22:48.319Z,100.00
2018-12-10T14:27:42.984Z,100.00
2018-12-10T14:32:37.720Z,100.00
2018-12-10T14:37:32.395Z,100.00
2018-12-10T14:42:27.058Z,100.00
2018-12-10T14:47:21.775Z,100.00
2018-12-10T14:52:16.494Z,100.00
2018-12-10T14:57:11.160Z,100.00
2018-12-10T15:02:06.203Z,100.00
2018-12-10T15:07:00.823Z,100.00
2018-12-10T15:11:55.432Z,100.00
2018-12-10T15:16:50.084Z,100.00
2018-12-10T15:26:44.363Z,100.00
2018-12-10T15:31:39.009Z,100.00
2018-12-10T15:36:33.704Z,100.00
2018-12-10T15:41:28.458Z,100.00
2018-12-10T15:46:23.164Z,100.00
2018-12-10T15:51:17.756Z,100.00
2018-12-10T15:56:12.403Z,100.00
2018-12-10T16:01:07.287Z,100.00
2018-12-10T16:06:01.892Z,100.00
2018-12-10T16:10:56.881Z,99.28
2018-12-10T16:15:51.626Z,94.46
2018-12-10T16:20:46.494Z,94.02
2018-12-10T16:25:41.136Z,100.00
2018-12-10T16:30:36.324Z,100.00
2018-12-10T16:35:31.863Z,100.00
2018-12-10T16:40:26.661Z,100.00
2018-12-10T16:45:21.381Z,100.00
2018-12-10T16:50:16.042Z,100.00
2018-12-10T16:55:10.765Z,100.00
2018-12-10T17:00:10.357Z,100.00
2018-12-10T17:05:07.618Z,100.00
2018-12-10T17:10:02.234Z,100.00
2018-12-10T17:14:56.843Z,100.00
2018-12-10T17:19:51.567Z,100.00
2018-12-10T17:24:46.214Z,100.00
2018-12-10T17:29:40.884Z,100.00
2018-12-10T17:34:35.560Z,100.00
2018-12-10T17:39:30.276Z,100.00
2018-12-10T17:44:26.314Z,99.92
2018-12-10T17:49:23.278Z,100.00
2018-12-10T18:05:31.670Z,100.00
2018-12-10T18:21:31.411Z,98.50
2018-12-10T18:37:31.400Z,94.48
2018-12-10T18:42:33.816Z,94.91
2018-12-10T18:47:28.549Z,94.34
2018-12-10T18:52:23.387Z,95.79
2018-12-10T18:57:18.094Z,94.48
2018-12-10T19:02:12.767Z,94.59
2018-12-10T19:07:07.513Z,96.36
2018-12-10T19:12:02.119Z,94.83
2018-12-10T19:16:56.893Z,93.62
2018-12-10T19:21:51.544Z,92.61
2018-12-10T19:26:47.389Z,88.15
2018-12-10T19:31:42.218Z,86.12
2018-12-10T19:36:37.042Z,85.75
2018-12-10T19:41:32.185Z,88.00
2018-12-10T19:46:27.077Z,89.28
2018-12-10T19:51:21.888Z,90.31
2018-12-10T19:56:16.733Z,92.82
2018-12-10T20:01:11.505Z,92.61
2018-12-10T20:06:11.415Z,90.58
2018-12-10T20:11:06.296Z,88.30
2018-12-10T20:16:01.304Z,88.83
2018-12-10T20:20:56.237Z,86.97
2018-12-10T20:25:50.969Z,86.90
2018-12-10T20:30:45.740Z,86.68
2018-12-10T20:35:40.400Z,83.89
2018-12-10T20:40:35.225Z,86.04
2018-12-10T20:45:29.973Z,85.02
2018-12-10T20:50:24.706Z,85.26
2018-12-10T20:55:19.532Z,88.24
2018-12-10T21:00:24.346Z,88.94
2018-12-10T21:05:35.182Z,89.33
2018-12-10T21:10:30.073Z,89.40
2018-12-10T21:15:25.401Z,90.34
2018-12-10T21:20:20.674Z,91.52
2018-12-10T21:25:15.760Z,91.78
2018-12-10T21:30:11.020Z,92.13
2018-12-10T21:35:06.114Z,92.68
2018-12-10T21:40:00.950Z,94.23
2018-12-10T21:44:56.005Z,96.85
2018-12-10T21:49:50.777Z,98.28
2018-12-10T21:54:45.668Z,100.00
2018-12-10T21:59:40.437Z,100.00
2018-12-10T22:04:35.237Z,100.00
2018-12-10T22:09:34.027Z,100.00
2018-12-10T22:24:54.152Z,100.00
2018-12-10T22:55:52.888Z,100.00
2018-12-10T23:05:54.644Z,100.00
2018-12-10T23:16:33.319Z,100.00
2018-12-10T23:21:34.383Z,100.00
2018-12-10T23:26:36.259Z,100.00
2018-12-10T23:31:35.861Z,100.00
2018-12-10T23:47:30.786Z,100.00
2018-12-10T23:53:39.575Z,100.00
